createdAt,value
2024-03-02T00:00:56.397Z,10.51
2024-03-02T00:03:25.441Z,10.64
2024-03-02T00:05:52.242Z,10.63
2024-03-02T00:08:18.750Z,10.65
2024-03-02T00:10:45.263Z,10.67
2024-03-02T00:13:12.443Z,10.70
2024-03-02T00:15:39.522Z,10.72
2024-03-02T00:18:06.101Z,10.69
2024-03-02T00:20:32.735Z,10.72
2024-03-02T00:22:59.493Z,10.72
2024-03-02T00:25:27.188Z,10.55
2024-03-02T00:27:53.804Z,10.55
2024-03-02T00:30:21.652Z,10.46
2024-03-02T00:32:48.863Z,10.37
2024-03-02T00:35:16.182Z,10.41
2024-03-02T00:37:43.935Z,10.07
2024-03-02T00:40:10.653Z,9.94
2024-03-02T00:42:37.323Z,10.10
2024-03-02T00:45:04.919Z,10.00
2024-03-02T00:47:31.598Z,10.05
2024-03-02T00:49:58.054Z,10.11
2024-03-02T00:52:24.713Z,9.95
2024-03-02T00:54:51.371Z,9.99
2024-03-02T00:57:19.049Z,10.10
2024-03-02T00:59:48.001Z,10.18
2024-03-02T01:02:15.228Z,10.17
2024-03-02T01:04:41.989Z,10.05
2024-03-02T01:07:09.127Z,10.00
2024-03-02T01:09:36.030Z,10.05
2024-03-02T01:12:02.531Z,10.07
2024-03-02T01:14:29.372Z,10.00
2024-03-02T01:16:58.609Z,9.85
2024-03-02T01:19:26.766Z,9.83
2024-03-02T01:21:53.582Z,9.82
2024-03-02T01:24:20.525Z,9.69
2024-03-02T01:26:47.125Z,9.71
2024-03-02T01:29:13.985Z,9.88
2024-03-02T01:31:40.977Z,9.96
2024-03-02T01:34:07.654Z,10.04
2024-03-02T01:36:34.271Z,10.07
2024-03-02T01:39:00.974Z,10.10
2024-03-02T01:41:27.401Z,10.14
2024-03-02T01:43:54.335Z,10.13
2024-03-02T01:46:20.882Z,10.15
2024-03-02T01:48:47.424Z,10.17
2024-03-02T01:51:14.546Z,10.17
2024-03-02T01:53:41.233Z,10.16
2024-03-02T01:56:07.966Z,10.17
2024-03-02T01:58:35.714Z,10.16
2024-03-02T02:01:02.524Z,10.12
2024-03-02T02:03:29.145Z,10.12
2024-03-02T02:05:56.209Z,10.12
2024-03-02T02:08:22.749Z,10.07
2024-03-02T02:10:49.309Z,10.04
2024-03-02T02:13:15.717Z,9.83
2024-03-02T02:15:42.482Z,9.84
2024-03-02T02:18:09.170Z,9.76
2024-03-02T02:20:35.859Z,9.73
2024-03-02T02:23:02.533Z,9.76
2024-03-02T02:25:29.227Z,9.74
2024-03-02T02:27:55.920Z,9.64
2024-03-02T02:30:22.534Z,9.63
2024-03-02T02:32:49.291Z,9.69
2024-03-02T02:35:16.241Z,9.72
2024-03-02T02:37:43.034Z,9.72
2024-03-02T02:40:09.554Z,9.50
2024-03-02T02:42:37.196Z,9.58
2024-03-02T02:45:04.272Z,9.63
2024-03-02T02:47:31.951Z,9.58
2024-03-02T02:49:58.583Z,9.64
2024-03-02T02:52:25.123Z,9.66
2024-03-02T02:54:53.104Z,9.68
2024-03-02T02:57:19.915Z,9.64
2024-03-02T02:59:46.473Z,9.55
2024-03-02T03:02:15.983Z,9.53
2024-03-02T03:04:44.395Z,9.59
2024-03-02T03:07:11.089Z,9.62
2024-03-02T03:09:37.972Z,9.66
2024-03-02T03:12:07.883Z,9.67
2024-03-02T03:14:37.510Z,9.67
2024-03-02T03:17:04.124Z,9.61
2024-03-02T03:19:31.158Z,9.62
2024-03-02T03:21:58.519Z,9.63
2024-03-02T03:24:25.528Z,9.54
2024-03-02T03:26:55.292Z,9.53
2024-03-02T03:29:21.801Z,9.58
2024-03-02T03:31:48.392Z,9.54
2024-03-02T03:34:14.969Z,9.55
2024-03-02T03:36:41.656Z,9.57
2024-03-02T03:39:08.214Z,9.41
2024-03-02T03:41:34.623Z,9.41
2024-03-02T03:44:01.420Z,9.47
2024-03-02T03:46:28.438Z,9.50
2024-03-02T03:48:55.699Z,9.40
2024-03-02T03:51:22.270Z,9.27
2024-03-02T03:53:48.812Z,9.26
2024-03-02T03:56:16.406Z,9.34
2024-03-02T03:58:43.116Z,9.41
2024-03-02T04:01:09.769Z,9.39
2024-03-02T04:03:36.574Z,9.42
2024-03-02T04:06:04.312Z,9.42
2024-03-02T04:08:31.466Z,9.35
2024-03-02T04:10:58.175Z,9.22
2024-03-02T04:13:25.421Z,9.20
2024-03-02T04:15:51.932Z,9.26
2024-03-02T04:18:18.448Z,9.29
2024-03-02T04:20:45.259Z,9.33
2024-03-02T04:23:11.825Z,9.32
2024-03-02T04:25:38.323Z,9.31
2024-03-02T04:28:06.412Z,9.26
2024-03-02T04:30:33.006Z,9.23
2024-03-02T04:32:59.574Z,9.25
2024-03-02T04:35:26.937Z,9.24
2024-03-02T04:37:53.605Z,9.23
2024-03-02T04:40:20.098Z,9.21
2024-03-02T04:42:46.946Z,9.18
2024-03-02T04:45:13.592Z,9.16
2024-03-02T04:47:40.130Z,9.17
2024-03-02T04:50:07.417Z,9.17
2024-03-02T04:52:33.918Z,9.16
2024-03-02T04:55:00.469Z,9.11
2024-03-02T04:57:27.395Z,9.09
2024-03-02T04:59:54.033Z,9.10
2024-03-02T05:02:20.848Z,9.16
2024-03-02T05:04:47.436Z,9.19
2024-03-02T05:07:13.979Z,9.21
2024-03-02T05:09:40.464Z,9.23
2024-03-02T05:12:06.952Z,9.23
2024-03-02T05:14:33.587Z,9.26
2024-03-02T05:17:00.316Z,9.27
2024-03-02T05:19:26.766Z,9.26
2024-03-02T05:21:53.360Z,9.29
2024-03-02T05:24:20.179Z,9.29
2024-03-02T05:32:28.044Z,9.30
2024-03-02T05:34:56.925Z,9.32
2024-03-02T05:37:23.568Z,9.33
2024-03-02T05:39:50.241Z,9.24
2024-03-02T05:42:16.923Z,9.28
2024-03-02T05:44:45.605Z,9.28
2024-03-02T05:47:12.412Z,9.29
2024-03-02T05:49:39.654Z,9.34
2024-03-02T05:52:06.425Z,9.39
2024-03-02T05:54:37.869Z,9.38
2024-03-02T05:57:04.467Z,9.42
2024-03-02T05:59:31.009Z,9.44
2024-03-02T06:01:57.583Z,9.44
2024-03-02T06:04:24.213Z,9.47
2024-03-02T06:06:51.825Z,9.48
2024-03-02T06:09:19.472Z,9.50
2024-03-02T06:11:46.269Z,9.51
2024-03-02T06:14:12.746Z,9.50
2024-03-02T06:16:39.350Z,9.53
2024-03-02T06:19:07.030Z,9.51
2024-03-02T06:21:33.781Z,9.41
2024-03-02T06:24:00.291Z,9.38
2024-03-02T06:26:26.857Z,9.32
2024-03-02T06:28:53.633Z,9.37
2024-03-02T06:31:20.450Z,9.42
2024-03-02T06:33:47.172Z,9.41
2024-03-02T06:36:16.115Z,9.25
2024-03-02T06:38:43.724Z,9.29
2024-03-02T06:41:10.433Z,9.43
2024-03-02T06:43:36.945Z,9.50
2024-03-02T06:46:03.556Z,9.58
2024-03-02T06:48:31.045Z,9.57
2024-03-02T06:50:58.353Z,9.59
2024-03-02T06:53:24.858Z,9.58
2024-03-02T06:55:51.267Z,9.60
2024-03-02T06:58:17.679Z,9.63
2024-03-02T07:00:46.766Z,9.62
2024-03-02T07:03:13.833Z,9.64
2024-03-02T07:05:40.454Z,9.62
2024-03-02T07:08:07.081Z,9.63
2024-03-02T07:10:34.058Z,9.67
2024-03-02T07:13:00.909Z,9.68
2024-03-02T07:15:27.637Z,9.61
2024-03-02T07:17:54.202Z,9.64
2024-03-02T07:20:23.278Z,9.66
2024-03-02T07:22:50.306Z,9.63
2024-03-02T07:27:46.745Z,9.66
2024-03-02T07:30:13.610Z,9.68
2024-03-02T07:32:41.472Z,9.69
2024-03-02T07:35:08.081Z,9.72
2024-03-02T07:37:35.016Z,9.74
2024-03-02T07:40:01.758Z,9.53
2024-03-02T07:42:30.772Z,9.43
2024-03-02T07:44:57.337Z,9.51
2024-03-02T07:47:24.653Z,9.70
2024-03-02T07:49:51.596Z,9.66
2024-03-02T07:52:18.083Z,9.70
2024-03-02T07:54:45.530Z,9.65
2024-03-02T07:57:11.948Z,9.74
2024-03-02T07:59:39.547Z,9.70
2024-03-02T08:02:06.455Z,9.79
2024-03-02T08:04:33.257Z,9.90
2024-03-02T08:06:59.949Z,9.86
2024-03-02T08:09:27.631Z,9.71
2024-03-02T08:11:54.735Z,9.78
2024-03-02T08:14:21.557Z,9.68
2024-03-02T08:16:48.245Z,9.82
2024-03-02T08:19:15.338Z,9.91
2024-03-02T08:21:42.230Z,9.82
2024-03-02T08:24:09.098Z,9.93
2024-03-02T08:26:36.828Z,10.06
2024-03-02T08:29:03.547Z,10.06
2024-03-02T08:34:10.850Z,10.26
2024-03-02T08:36:37.760Z,10.25
2024-03-02T08:39:04.890Z,10.26
2024-03-02T08:41:31.902Z,10.11
2024-03-02T08:43:59.117Z,9.99
2024-03-02T08:46:25.915Z,9.90
2024-03-02T08:48:52.365Z,10.01
2024-03-02T08:51:21.150Z,10.08
2024-03-02T08:53:48.027Z,10.08
2024-03-02T08:56:14.674Z,9.99
2024-03-02T08:58:41.354Z,10.11
2024-03-02T09:01:08.016Z,10.03
2024-03-02T09:03:34.931Z,10.08
2024-03-02T09:06:02.320Z,10.21
2024-03-02T09:08:28.966Z,10.26
2024-03-02T09:10:56.565Z,10.26
2024-03-02T09:13:23.001Z,10.42
2024-03-02T09:15:49.566Z,10.28
2024-03-02T09:18:16.054Z,10.25
2024-03-02T09:20:42.656Z,10.39
2024-03-02T09:23:12.140Z,10.47
2024-03-02T09:25:39.880Z,10.59
2024-03-02T09:28:06.478Z,10.56
2024-03-02T09:30:33.667Z,10.58
2024-03-02T09:35:33.985Z,10.76
2024-03-02T09:38:01.100Z,10.83
2024-03-02T09:40:27.625Z,10.94
2024-03-02T09:42:54.667Z,10.97
2024-03-02T09:45:23.878Z,10.96
2024-03-02T09:47:50.499Z,11.04
2024-03-02T09:50:17.912Z,10.94
2024-03-02T09:52:45.390Z,11.12
2024-03-02T09:55:14.512Z,11.19
2024-03-02T09:57:43.666Z,11.17
2024-03-02T10:00:10.566Z,11.28
2024-03-02T10:02:37.417Z,11.33
2024-03-02T10:05:07.888Z,11.42
2024-03-02T10:07:35.340Z,11.50
2024-03-02T10:10:02.135Z,11.37
2024-03-02T10:12:30.165Z,11.34
2024-03-02T10:14:57.269Z,11.54
2024-03-02T10:17:25.873Z,11.49
2024-03-02T10:19:53.332Z,11.47
2024-03-02T10:22:24.088Z,11.56
2024-03-02T10:24:59.544Z,11.66
2024-03-02T10:27:27.014Z,11.73
2024-03-02T10:29:53.881Z,11.67
2024-03-02T10:32:20.438Z,11.67
2024-03-02T10:34:46.883Z,11.62
2024-03-02T10:37:13.821Z,11.63
2024-03-02T10:39:41.532Z,11.53
2024-03-02T10:42:08.334Z,11.60
2024-03-02T10:44:35.317Z,11.70
2024-03-02T10:47:01.860Z,11.63
2024-03-02T10:49:28.542Z,11.75
2024-03-02T10:51:56.806Z,11.62
2024-03-02T10:54:30.075Z,11.52
2024-03-02T10:56:57.071Z,11.66
2024-03-02T10:59:23.609Z,11.68
2024-03-02T11:01:50.239Z,11.80
2024-03-02T11:04:17.907Z,11.78
2024-03-02T11:06:44.482Z,11.77
2024-03-02T11:09:11.563Z,11.73
2024-03-02T11:11:38.164Z,11.57
2024-03-02T11:14:04.608Z,11.77
2024-03-02T11:16:31.133Z,11.75
2024-03-02T11:18:59.924Z,11.76
2024-03-02T11:21:26.779Z,11.77
2024-03-02T11:23:54.566Z,11.89
2024-03-02T11:26:21.097Z,11.81
2024-03-02T11:28:47.568Z,11.82
2024-03-02T11:31:14.395Z,11.77
2024-03-02T11:33:40.990Z,11.99
2024-03-02T11:36:09.007Z,12.10
2024-03-02T11:38:37.143Z,11.98
2024-03-02T11:41:06.190Z,12.00
2024-03-02T11:43:32.720Z,11.98
2024-03-02T11:45:59.705Z,12.04
2024-03-02T11:48:28.889Z,12.00
2024-03-02T11:50:55.500Z,11.79
2024-03-02T11:53:24.194Z,11.69
2024-03-02T11:55:53.150Z,11.70
2024-03-02T11:58:19.818Z,11.81
2024-03-02T12:00:46.609Z,11.72
2024-03-02T12:03:13.167Z,11.84
2024-03-02T12:05:40.524Z,11.82
2024-03-02T12:08:08.168Z,11.83
2024-03-02T12:10:35.247Z,11.86
2024-03-02T12:13:02.202Z,11.82
2024-03-02T12:15:28.779Z,11.63
2024-03-02T12:17:55.393Z,11.64
2024-03-02T12:20:22.398Z,11.73
2024-03-02T12:22:50.014Z,11.94
2024-03-02T12:25:16.706Z,11.97
2024-03-02T12:27:44.277Z,12.09
2024-03-02T12:30:10.741Z,12.01
2024-03-02T12:32:37.673Z,12.03
2024-03-02T12:35:04.074Z,11.98
2024-03-02T12:37:30.653Z,12.04
2024-03-02T12:39:57.262Z,12.05
2024-03-02T12:42:23.864Z,11.74
2024-03-02T12:44:50.370Z,11.90
2024-03-02T12:47:17.030Z,11.79
2024-03-02T12:49:43.557Z,11.63
2024-03-02T12:52:10.321Z,11.89
2024-03-02T12:54:37.404Z,11.99
2024-03-02T12:57:03.945Z,12.23
2024-03-02T12:59:30.479Z,12.29
2024-03-02T13:01:57.158Z,12.45
2024-03-02T13:04:24.688Z,12.36
2024-03-02T13:06:51.287Z,12.35
2024-03-02T13:09:18.179Z,12.34
2024-03-02T13:11:44.726Z,11.65
2024-03-02T13:14:11.271Z,11.74
2024-03-02T13:16:44.453Z,11.94
2024-03-02T13:19:14.697Z,12.04
2024-03-02T13:21:41.625Z,12.26
2024-03-02T13:24:08.226Z,12.40
2024-03-02T13:26:35.103Z,12.22
2024-03-02T13:29:02.268Z,12.28
2024-03-02T13:31:28.728Z,12.24
2024-03-02T13:33:56.067Z,12.34
2024-03-02T13:36:22.832Z,12.45
2024-03-02T13:38:49.494Z,12.53
2024-03-02T13:41:16.136Z,12.63
2024-03-02T13:43:43.356Z,12.56
2024-03-02T13:46:09.950Z,12.40
2024-03-02T13:48:37.453Z,12.41
2024-03-02T13:51:04.217Z,12.59
2024-03-02T13:53:30.706Z,12.67
2024-03-02T13:55:58.072Z,12.70
2024-03-02T13:58:24.497Z,12.77
2024-03-02T14:00:52.550Z,12.75
2024-03-02T14:03:19.249Z,12.52
2024-03-02T14:05:46.211Z,12.54
2024-03-02T14:08:13.544Z,12.57
2024-03-02T14:10:40.009Z,12.54
2024-03-02T14:13:06.840Z,12.55
2024-03-02T14:15:33.938Z,12.42
2024-03-02T14:18:00.768Z,12.44
2024-03-02T14:20:27.682Z,12.49
2024-03-02T14:22:55.094Z,12.38
2024-03-02T14:25:21.614Z,12.32
2024-03-02T14:28:08.431Z,12.16
2024-03-02T14:30:38.719Z,11.94
2024-03-02T14:33:05.216Z,12.11
2024-03-02T14:35:34.174Z,12.25
2024-03-02T14:38:01.783Z,12.20
2024-03-02T14:40:28.271Z,12.30
2024-03-02T14:42:59.141Z,12.79
2024-03-02T14:45:26.308Z,12.91
2024-03-02T14:47:52.915Z,12.81
2024-03-02T14:50:19.892Z,12.74
2024-03-02T14:52:46.897Z,12.65
2024-03-02T14:55:14.081Z,12.62
2024-03-02T14:57:40.652Z,12.57
2024-03-02T15:00:12.101Z,12.55
2024-03-02T15:02:38.815Z,12.39
2024-03-02T15:05:06.435Z,12.42
2024-03-02T15:07:33.140Z,12.28
2024-03-02T15:09:59.703Z,11.98
2024-03-02T15:12:26.220Z,12.02
2024-03-02T15:14:53.083Z,12.24
2024-03-02T15:17:19.787Z,12.13
2024-03-02T15:19:46.588Z,11.75
2024-03-02T15:22:14.402Z,11.71
2024-03-02T15:24:41.403Z,11.69
2024-03-02T15:27:07.873Z,11.91
2024-03-02T15:29:34.486Z,11.88
2024-03-02T15:32:00.941Z,11.84
2024-03-02T15:34:27.652Z,12.01
2024-03-02T15:36:54.396Z,11.96
2024-03-02T15:39:21.281Z,11.87
2024-03-02T15:41:49.816Z,11.85
2024-03-02T15:44:19.808Z,11.80
2024-03-02T15:46:46.583Z,11.97
2024-03-02T15:49:13.364Z,12.01
2024-03-02T15:51:39.901Z,11.93
2024-03-02T15:54:06.503Z,11.71
2024-03-02T15:56:33.337Z,11.73
2024-03-02T15:58:59.911Z,11.78
2024-03-02T16:01:28.699Z,11.90
2024-03-02T16:03:57.256Z,11.72
2024-03-02T16:06:23.996Z,11.80
2024-03-02T16:08:50.585Z,11.92
2024-03-02T16:11:17.647Z,12.01
2024-03-02T16:13:44.161Z,11.92
2024-03-02T16:16:10.743Z,11.83
2024-03-02T16:18:37.350Z,11.44
2024-03-02T16:21:03.838Z,11.66
2024-03-02T16:23:30.751Z,11.75
2024-03-02T16:25:57.926Z,11.42
2024-03-02T16:28:25.788Z,11.32
2024-03-02T16:30:52.687Z,11.61
2024-03-02T16:33:19.356Z,11.70
2024-03-02T16:35:45.859Z,11.75
2024-03-02T16:38:13.129Z,11.78
2024-03-02T16:40:39.754Z,11.69
2024-03-02T16:43:06.473Z,11.78
2024-03-02T16:45:33.458Z,11.89
2024-03-02T16:48:00.974Z,11.93
2024-03-02T16:50:27.514Z,12.06
2024-03-02T16:52:54.346Z,12.14
2024-03-02T16:55:21.407Z,12.08
2024-03-02T16:57:48.270Z,12.01
2024-03-02T17:00:15.360Z,12.12
2024-03-02T17:02:41.905Z,11.96
2024-03-02T17:05:09.569Z,12.05
2024-03-02T17:07:40.515Z,11.98
2024-03-02T17:10:09.173Z,11.76
2024-03-02T17:12:35.991Z,11.84
2024-03-02T17:15:02.739Z,11.48
2024-03-02T17:17:29.612Z,11.58
2024-03-02T17:19:56.463Z,11.79
2024-03-02T17:22:23.325Z,11.94
2024-03-02T17:24:50.643Z,11.98
2024-03-02T17:27:17.335Z,12.09
2024-03-02T17:29:44.062Z,12.16
2024-03-02T17:32:10.927Z,12.11
2024-03-02T17:34:37.649Z,12.11
2024-03-02T17:37:04.469Z,11.93
2024-03-02T17:39:31.221Z,11.89
2024-03-02T17:41:57.684Z,11.86
2024-03-02T17:44:24.533Z,11.93
2024-03-02T17:46:51.403Z,11.99
2024-03-02T17:49:20.693Z,11.93
2024-03-02T17:51:47.584Z,11.93
2024-03-02T17:54:14.174Z,12.02
2024-03-02T17:56:40.729Z,12.11
2024-03-02T17:59:08.455Z,12.35
2024-03-02T18:01:34.872Z,12.20
2024-03-02T18:04:01.450Z,11.98
2024-03-02T18:06:28.875Z,11.92
2024-03-02T18:08:55.609Z,12.02
2024-03-02T18:11:22.852Z,12.14
2024-03-02T18:13:49.533Z,12.16
2024-03-02T18:16:16.420Z,12.20
2024-03-02T18:18:43.236Z,12.21
2024-03-02T18:21:09.835Z,12.23
2024-03-02T18:23:36.289Z,12.09
2024-03-02T18:26:03.200Z,11.97
2024-03-02T18:28:30.854Z,11.97
2024-03-02T18:30:57.448Z,11.87
2024-03-02T18:33:23.942Z,11.99
2024-03-02T18:35:50.492Z,11.97
2024-03-02T18:38:16.979Z,11.91
2024-03-02T18:40:43.455Z,11.89
2024-03-02T18:43:09.968Z,11.75
2024-03-02T18:45:36.569Z,11.77
2024-03-02T18:48:03.804Z,11.74
2024-03-02T18:50:31.988Z,11.76
2024-03-02T18:52:58.614Z,11.81
2024-03-02T18:55:25.411Z,11.79
2024-03-02T18:57:56.715Z,11.92
2024-03-02T19:00:23.641Z,11.98
2024-03-02T19:02:50.241Z,11.91
2024-03-02T19:05:16.966Z,11.93
2024-03-02T19:07:46.049Z,11.80
2024-03-02T19:10:12.685Z,11.94
2024-03-02T19:12:42.212Z,11.48
2024-03-02T19:15:11.876Z,11.51
2024-03-02T19:17:39.269Z,11.59
2024-03-02T19:25:45.359Z,12.40
2024-03-02T19:28:12.845Z,12.50
2024-03-02T19:30:40.928Z,12.58
2024-03-02T19:33:19.050Z,12.67
2024-03-02T19:35:45.634Z,12.69
2024-03-02T19:38:12.649Z,12.93
2024-03-02T19:40:39.405Z,12.70
2024-03-02T19:43:06.694Z,12.56
2024-03-02T19:45:34.627Z,12.35
2024-03-02T19:48:01.288Z,12.39
2024-03-02T19:50:29.513Z,11.98
2024-03-02T19:52:56.095Z,12.18
2024-03-02T19:55:22.993Z,11.92
2024-03-02T19:57:49.811Z,11.72
2024-03-02T20:00:16.550Z,11.80
2024-03-02T20:02:43.691Z,11.46
2024-03-02T20:05:10.622Z,11.57
2024-03-02T20:07:37.524Z,11.66
2024-03-02T20:10:04.142Z,11.58
2024-03-02T20:12:30.739Z,11.65
2024-03-02T20:15:05.176Z,11.50
2024-03-02T20:17:31.929Z,11.60
2024-03-02T20:19:58.966Z,11.57
2024-03-02T20:22:26.017Z,11.54
2024-03-02T20:24:52.960Z,11.62
2024-03-02T20:27:21.413Z,11.68
2024-03-02T20:29:48.338Z,11.68
2024-03-02T20:32:15.102Z,11.74
2024-03-02T20:34:43.172Z,11.54
2024-03-02T20:37:10.458Z,11.76
2024-03-02T20:39:37.051Z,11.62
2024-03-02T20:42:05.566Z,11.57
2024-03-02T20:44:34.687Z,11.43
2024-03-02T20:47:01.429Z,11.34
2024-03-02T20:49:29.087Z,11.37
2024-03-02T20:51:56.428Z,11.28
2024-03-02T20:54:23.819Z,11.23
2024-03-02T20:56:50.942Z,11.30
2024-03-02T20:59:17.754Z,11.44
2024-03-02T21:01:46.445Z,11.42
2024-03-02T21:04:14.530Z,11.40
2024-03-02T21:06:41.295Z,11.49
2024-03-02T21:09:07.996Z,11.19
2024-03-02T21:11:35.407Z,11.03
2024-03-02T21:14:02.063Z,10.94
2024-03-02T21:16:29.486Z,11.04
2024-03-02T21:21:47.470Z,10.78
2024-03-02T21:24:14.935Z,10.87
2024-03-02T21:26:41.690Z,10.94
2024-03-02T21:29:08.746Z,10.82
2024-03-02T21:31:35.672Z,10.80
2024-03-02T21:34:02.236Z,10.80
2024-03-02T21:36:28.900Z,10.90
2024-03-02T21:38:56.093Z,11.03
2024-03-02T21:41:22.851Z,11.10
2024-03-02T21:43:50.320Z,11.14
2024-03-02T21:46:16.875Z,11.27
2024-03-02T21:48:43.596Z,11.18
2024-03-02T21:51:10.619Z,11.26
2024-03-02T21:53:37.961Z,11.25
2024-03-02T21:56:05.852Z,11.25
2024-03-02T21:58:32.830Z,11.28
2024-03-02T22:00:59.389Z,11.08
2024-03-02T22:03:26.002Z,11.16
2024-03-02T22:05:53.002Z,11.22
2024-03-02T22:08:19.761Z,11.34
2024-03-02T22:10:46.377Z,11.38
2024-03-02T22:13:13.036Z,11.24
2024-03-02T22:15:40.352Z,11.16
2024-03-02T22:18:07.779Z,11.16
2024-03-02T22:20:37.492Z,11.02
2024-03-02T22:23:05.818Z,10.96
2024-03-02T22:25:32.302Z,11.05
2024-03-02T22:27:59.360Z,10.93
2024-03-02T22:30:25.830Z,10.93
2024-03-02T22:32:52.497Z,11.01
2024-03-02T22:35:22.479Z,10.93
2024-03-02T22:37:51.499Z,10.79
2024-03-02T22:40:18.093Z,10.75
2024-03-02T22:45:37.482Z,10.80
2024-03-02T22:48:04.774Z,10.75
2024-03-02T22:50:31.397Z,10.74
2024-03-02T22:53:00.368Z,10.95
2024-03-02T22:55:27.112Z,10.95
2024-03-02T22:57:54.140Z,10.93
2024-03-02T23:00:22.858Z,10.89
2024-03-02T23:02:49.506Z,11.02
2024-03-02T23:05:16.412Z,10.99
2024-03-02T23:07:43.001Z,10.97
2024-03-02T23:10:11.298Z,11.05
2024-03-02T23:12:38.517Z,11.00
2024-03-02T23:15:05.022Z,10.94
2024-03-02T23:17:32.212Z,10.77
2024-03-02T23:19:58.746Z,10.79
2024-03-02T23:22:26.310Z,10.86
2024-03-02T23:24:52.966Z,10.95
2024-03-02T23:27:19.999Z,10.89
2024-03-02T23:29:46.767Z,10.82
2024-03-02T23:32:13.861Z,10.76
2024-03-02T23:34:40.938Z,10.47
2024-03-02T23:37:07.834Z,10.61
2024-03-02T23:39:34.970Z,10.68
2024-03-02T23:42:01.697Z,10.79
2024-03-02T23:44:28.304Z,10.43
2024-03-02T23:46:54.794Z,10.31
2024-03-02T23:49:21.457Z,10.36
2024-03-02T23:51:48.131Z,10.59
2024-03-02T23:54:15.243Z,10.55
2024-03-02T23:56:41.839Z,10.51
2024-03-02T23:59:10.334Z,10.45
